createdAt,value
2018-12-05T00:00:56.840Z,24.47
2018-12-05T00:02:03.337Z,21.93
2018-12-05T00:03:08.915Z,16.27
2018-12-05T00:04:13.552Z,15.08
2018-12-05T00:05:18.114Z,15.30
2018-12-05T00:06:22.501Z,21.42
2018-12-05T00:07:26.916Z,17.62
2018-12-05T00:08:31.839Z,23.90
2018-12-05T00:09:36.460Z,19.15
2018-12-05T00:10:44.752Z,17.50
2018-12-05T00:11:49.156Z,19.25
2018-12-05T00:12:53.698Z,30.32
2018-12-05T00:13:58.125Z,21.35
2018-12-05T00:15:02.547Z,30.12
2018-12-05T00:16:06.996Z,29.80
2018-12-05T00:17:12.230Z,24.40
2018-12-05T00:18:17.699Z,29.35
2018-12-05T00:19:22.289Z,21.07
2018-12-05T00:20:26.784Z,24.50
2018-12-05T00:21:31.920Z,25.60
2018-12-05T00:22:36.351Z,18.73
2018-12-05T00:23:41.911Z,29.80
2018-12-05T00:24:48.109Z,18.15
2018-12-05T00:25:53.121Z,23.05
2018-12-05T00:26:57.868Z,20.50
2018-12-05T00:28:03.317Z,19.32
2018-12-05T00:29:08.088Z,17.87
2018-12-05T00:30:12.615Z,18.50
2018-12-05T00:31:17.260Z,20.82
2018-12-05T00:32:23.290Z,22.58
2018-12-05T00:33:28.122Z,20.40
2018-12-05T00:34:32.690Z,21.12
2018-12-05T00:35:37.197Z,22.77
2018-12-05T00:36:41.669Z,27.27
2018-12-05T00:37:46.716Z,25.92
2018-12-05T00:38:51.396Z,20.55
2018-12-05T00:39:55.984Z,30.60
2018-12-05T00:41:01.367Z,24.82
2018-12-05T00:42:05.983Z,23.02
2018-12-05T00:43:10.728Z,23.65
2018-12-05T00:44:16.078Z,19.23
2018-12-05T00:45:22.291Z,18.52
2018-12-05T00:46:27.143Z,20.75
2018-12-05T00:47:31.535Z,20.32
2018-12-05T00:48:35.990Z,28.40
2018-12-05T00:49:40.435Z,17.05
2018-12-05T00:50:45.941Z,19.80
2018-12-05T00:51:53.286Z,23.83
2018-12-05T00:52:58.108Z,19.32
2018-12-05T00:54:02.664Z,18.27
2018-12-05T00:55:07.875Z,20.27
2018-12-05T00:56:12.607Z,23.57
2018-12-05T00:57:17.640Z,20.57
2018-12-05T00:58:22.004Z,21.12
2018-12-05T00:59:27.937Z,23.62
2018-12-05T01:00:32.896Z,31.02
2018-12-05T01:01:38.823Z,25.52
2018-12-05T01:02:43.353Z,22.05
2018-12-05T01:03:48.451Z,27.67
2018-12-05T01:04:52.900Z,22.00
2018-12-05T01:05:57.504Z,23.30
2018-12-05T01:07:02.080Z,26.62
2018-12-05T01:08:06.747Z,25.20
2018-12-05T01:09:13.152Z,28.77
2018-12-05T01:10:17.861Z,20.75
2018-12-05T01:11:22.263Z,24.37
2018-12-05T01:12:26.757Z,18.95
2018-12-05T01:13:31.233Z,25.75
2018-12-05T01:14:35.747Z,29.42
2018-12-05T01:15:40.632Z,26.73
2018-12-05T01:16:45.194Z,22.10
2018-12-05T01:17:50.125Z,22.73
2018-12-05T01:18:54.589Z,23.70
2018-12-05T01:19:58.958Z,24.25
2018-12-05T01:21:03.493Z,26.33
2018-12-05T01:22:08.004Z,19.42
2018-12-05T01:23:12.454Z,27.07
2018-12-05T01:24:16.999Z,21.10
2018-12-05T01:25:21.647Z,18.80
2018-12-05T01:26:26.081Z,21.90
2018-12-05T01:27:30.927Z,22.22
2018-12-05T01:28:35.404Z,20.57
2018-12-05T01:29:40.131Z,29.70
2018-12-05T01:30:45.436Z,27.02
2018-12-05T01:31:51.835Z,24.30
2018-12-05T01:32:56.313Z,19.75
2018-12-05T01:34:00.711Z,18.65
2018-12-05T01:35:05.692Z,17.35
2018-12-05T01:36:10.402Z,18.45
2018-12-05T01:37:15.137Z,23.42
2018-12-05T01:38:20.480Z,19.73
2018-12-05T01:39:25.285Z,18.17
2018-12-05T01:40:30.278Z,15.15
2018-12-05T01:41:36.400Z,18.70
2018-12-05T01:42:40.852Z,20.10
2018-12-05T01:43:48.767Z,22.65
2018-12-05T01:44:57.357Z,20.85
2018-12-05T01:46:01.820Z,17.35
2018-12-05T01:47:06.275Z,21.17
2018-12-05T01:48:11.040Z,16.93
2018-12-05T01:49:16.212Z,17.77
2018-12-05T01:50:20.625Z,25.17
2018-12-05T01:51:25.348Z,19.65
2018-12-05T01:52:29.775Z,21.50
2018-12-05T01:53:34.268Z,19.48
2018-12-05T01:54:38.747Z,17.90
2018-12-05T01:55:43.714Z,18.12
2018-12-05T01:56:48.293Z,14.90
2018-12-05T01:57:52.881Z,22.85
2018-12-05T01:58:57.477Z,21.35
2018-12-05T02:00:02.074Z,16.05
2018-12-05T02:01:07.741Z,23.20
2018-12-05T02:02:12.268Z,24.47
2018-12-05T02:03:16.786Z,20.88
2018-12-05T02:04:21.505Z,21.15
2018-12-05T02:05:25.920Z,15.08
2018-12-05T02:06:30.397Z,18.40
2018-12-05T02:07:35.014Z,23.27
2018-12-05T02:08:41.103Z,22.60
2018-12-05T02:09:47.436Z,19.87
2018-12-05T02:10:51.919Z,19.37
2018-12-05T02:11:57.331Z,18.12
2018-12-05T02:13:02.066Z,19.90
2018-12-05T02:14:06.906Z,19.25
2018-12-05T02:15:11.568Z,21.85
2018-12-05T02:16:15.970Z,17.50
2018-12-05T02:17:20.431Z,18.12
2018-12-05T02:18:24.942Z,20.12
2018-12-05T02:19:31.435Z,21.27
2018-12-05T02:20:35.902Z,21.35
2018-12-05T02:21:40.419Z,20.05
2018-12-05T02:22:44.863Z,16.97
2018-12-05T02:23:49.331Z,19.23
2018-12-05T02:24:54.313Z,18.70
2018-12-05T02:25:58.706Z,19.45
2018-12-05T02:27:03.217Z,19.92
2018-12-05T02:28:07.900Z,20.92
2018-12-05T02:29:14.285Z,20.20
2018-12-05T02:30:19.162Z,21.27
2018-12-05T02:31:23.664Z,18.40
2018-12-05T02:32:28.051Z,18.37
2018-12-05T02:33:32.750Z,22.55
2018-12-05T02:34:37.463Z,18.10
2018-12-05T02:35:41.885Z,22.30
2018-12-05T02:36:46.261Z,20.02
2018-12-05T02:37:50.686Z,22.37
2018-12-05T02:38:56.779Z,27.82
2018-12-05T02:40:01.318Z,19.27
2018-12-05T02:41:06.549Z,15.05
2018-12-05T02:42:11.018Z,18.50
2018-12-05T02:43:15.652Z,18.17
2018-12-05T02:44:22.128Z,17.12
2018-12-05T02:45:26.679Z,22.07
2018-12-05T02:46:31.136Z,17.27
2018-12-05T02:47:35.694Z,16.70
2018-12-05T02:48:40.240Z,15.63
2018-12-05T02:49:44.808Z,22.52
2018-12-05T02:50:49.398Z,19.45
2018-12-05T02:51:54.405Z,15.32
2018-12-05T02:52:58.853Z,19.62
2018-12-05T02:54:03.269Z,14.90
2018-12-05T02:55:07.817Z,16.82
2018-12-05T02:56:12.254Z,15.50
2018-12-05T02:57:16.733Z,15.08
2018-12-05T02:58:21.305Z,28.80
2018-12-05T02:59:25.691Z,15.80
2018-12-05T03:00:30.174Z,19.07
2018-12-05T03:01:34.624Z,18.10
2018-12-05T03:02:39.211Z,14.83
2018-12-05T03:03:43.777Z,14.70
2018-12-05T03:04:48.252Z,17.75
2018-12-05T03:05:52.719Z,15.63
2018-12-05T03:06:57.130Z,19.73
2018-12-05T03:08:02.776Z,22.10
2018-12-05T03:09:08.788Z,22.35
2018-12-05T03:10:13.680Z,17.27
2018-12-05T03:11:18.317Z,20.02
2018-12-05T03:12:22.672Z,21.23
2018-12-05T03:13:27.104Z,23.67
2018-12-05T03:14:31.588Z,21.35
2018-12-05T03:15:36.185Z,23.98
2018-12-05T03:16:40.889Z,24.00
2018-12-05T03:17:45.788Z,22.15
2018-12-05T03:18:50.221Z,21.93
2018-12-05T03:19:55.247Z,23.45
2018-12-05T03:20:59.695Z,28.15
2018-12-05T03:22:04.757Z,30.80
2018-12-05T03:23:09.187Z,25.05
2018-12-05T03:24:14.360Z,22.82
2018-12-05T03:25:18.820Z,27.22
2018-12-05T03:26:23.394Z,24.07
2018-12-05T03:27:28.182Z,26.77
2018-12-05T03:28:32.742Z,25.30
2018-12-05T03:29:37.332Z,23.12
2018-12-05T03:30:42.044Z,24.60
2018-12-05T03:31:47.214Z,23.00
2018-12-05T03:32:52.627Z,31.02
2018-12-05T03:33:57.093Z,33.30
2018-12-05T03:35:01.492Z,28.50
2018-12-05T03:36:06.121Z,29.10
2018-12-05T03:37:10.553Z,27.40
2018-12-05T03:38:16.208Z,24.25
2018-12-05T03:39:22.267Z,25.35
2018-12-05T03:40:30.427Z,24.50
2018-12-05T03:41:36.148Z,25.92
2018-12-05T03:42:40.845Z,27.10
2018-12-05T03:43:46.749Z,17.60
2018-12-05T03:44:51.407Z,20.92
2018-12-05T03:45:56.377Z,24.37
2018-12-05T03:47:01.574Z,23.07
2018-12-05T03:48:06.430Z,25.43
2018-12-05T03:49:11.100Z,26.68
2018-12-05T03:50:16.292Z,25.45
2018-12-05T03:51:23.981Z,21.50
2018-12-05T03:52:30.304Z,29.65
2018-12-05T03:53:36.107Z,25.90
2018-12-05T03:54:41.455Z,22.22
2018-12-05T03:55:47.449Z,31.10
2018-12-05T03:56:54.212Z,28.67
2018-12-05T03:57:58.962Z,27.77
2018-12-05T03:59:03.597Z,30.70
2018-12-05T04:00:09.348Z,34.35
2018-12-05T04:01:14.615Z,33.92
2018-12-05T04:02:19.176Z,37.50
2018-12-05T04:03:23.715Z,42.58
2018-12-05T04:04:33.098Z,39.83
2018-12-05T04:05:39.587Z,46.90
2018-12-05T04:06:44.032Z,36.77
2018-12-05T04:07:59.944Z,40.03
2018-12-05T04:09:07.034Z,31.55
2018-12-05T04:10:12.595Z,29.18
2018-12-05T04:11:18.481Z,24.07
2018-12-05T04:12:23.591Z,23.40
2018-12-05T04:13:28.535Z,19.55
2018-12-05T04:14:36.392Z,19.32
2018-12-05T04:15:44.827Z,19.77
2018-12-05T04:16:49.521Z,15.58
2018-12-05T04:17:54.688Z,19.40
2018-12-05T04:19:02.281Z,21.37
2018-12-05T04:20:07.199Z,17.48
2018-12-05T04:21:16.196Z,17.10
2018-12-05T04:22:25.088Z,17.60
2018-12-05T04:23:33.798Z,20.00
2018-12-05T04:25:53.990Z,25.82
2018-12-05T04:30:03.389Z,22.87
2018-12-05T04:31:09.278Z,19.67
2018-12-05T04:32:15.913Z,18.70
2018-12-05T04:33:20.703Z,15.08
2018-12-05T04:34:25.432Z,24.35
2018-12-05T04:38:46.453Z,15.88
2018-12-05T04:50:06.158Z,17.80
2018-12-05T04:51:12.590Z,17.90
2018-12-05T04:52:17.523Z,18.92
2018-12-05T04:53:22.192Z,18.92
2018-12-05T04:54:26.660Z,19.42
2018-12-05T04:55:32.440Z,19.90
2018-12-05T04:58:34.987Z,16.67
2018-12-05T04:59:39.693Z,15.72
2018-12-05T05:00:44.374Z,20.60
2018-12-05T05:01:50.590Z,23.60
2018-12-05T05:02:55.209Z,22.27
2018-12-05T05:03:59.829Z,22.52
2018-12-05T05:05:04.531Z,22.60
2018-12-05T05:06:08.946Z,21.87
2018-12-05T05:07:13.405Z,22.35
2018-12-05T05:08:22.316Z,18.27
2018-12-05T05:09:28.127Z,21.20
2018-12-05T05:10:32.754Z,24.57
2018-12-05T05:11:38.654Z,19.35
2018-12-05T05:12:45.265Z,17.52
2018-12-05T05:13:51.114Z,21.45
2018-12-05T05:14:56.307Z,21.77
2018-12-05T05:16:01.103Z,18.35
2018-12-05T05:17:06.411Z,23.00
2018-12-05T05:18:10.775Z,21.70
2018-12-05T05:19:15.876Z,22.17
2018-12-05T05:20:21.032Z,29.02
2018-12-05T05:21:25.585Z,20.75
2018-12-05T05:22:29.947Z,23.73
2018-12-05T05:23:34.549Z,17.20
2018-12-05T05:24:38.944Z,25.35
2018-12-05T05:25:43.292Z,19.17
2018-12-05T05:26:48.597Z,19.85
2018-12-05T05:27:52.949Z,22.52
2018-12-05T05:28:57.508Z,23.30
2018-12-05T05:30:03.024Z,20.77
2018-12-05T05:31:07.469Z,19.87
2018-12-05T05:32:13.180Z,19.55
2018-12-05T05:33:17.719Z,17.70
2018-12-05T05:34:26.389Z,25.12
2018-12-05T05:35:32.222Z,20.25
2018-12-05T05:36:37.875Z,19.32
2018-12-05T05:37:42.666Z,17.45
2018-12-05T05:38:47.284Z,21.75
2018-12-05T05:39:51.761Z,22.45
2018-12-05T05:40:57.786Z,21.12
2018-12-05T05:42:04.061Z,19.40
2018-12-05T05:43:09.863Z,19.52
2018-12-05T05:44:14.525Z,19.95
2018-12-05T05:45:18.962Z,27.50
2018-12-05T05:46:23.451Z,21.87
2018-12-05T05:47:28.380Z,23.70
2018-12-05T05:48:33.262Z,36.73
2018-12-05T05:49:37.663Z,31.93
2018-12-05T05:50:42.078Z,23.20
2018-12-05T05:51:46.751Z,29.95
2018-12-05T05:52:52.274Z,26.93
2018-12-05T05:53:56.739Z,28.57
2018-12-05T05:55:01.171Z,23.67
2018-12-05T05:56:05.619Z,21.07
2018-12-05T05:57:10.015Z,23.42
2018-12-05T05:58:14.556Z,22.52
2018-12-05T05:59:19.144Z,31.57
2018-12-05T06:00:24.047Z,25.75
2018-12-05T06:01:28.507Z,25.30
2018-12-05T06:02:32.992Z,23.05
2018-12-05T06:03:37.407Z,23.15
2018-12-05T06:04:41.791Z,22.25
2018-12-05T06:05:46.216Z,24.10
2018-12-05T06:06:51.243Z,21.87
2018-12-05T06:07:56.808Z,20.40
2018-12-05T06:09:01.269Z,20.23
2018-12-05T06:10:07.593Z,22.80
2018-12-05T06:11:12.002Z,16.55
2018-12-05T06:12:16.656Z,15.32
2018-12-05T06:13:21.375Z,19.55
2018-12-05T06:14:25.879Z,32.75
2018-12-05T06:15:30.328Z,21.07
2018-12-05T06:16:35.089Z,19.02
2018-12-05T06:17:40.766Z,17.82
2018-12-05T06:18:47.482Z,18.82
2018-12-05T06:19:55.281Z,18.52
2018-12-05T06:20:59.972Z,20.25
2018-12-05T06:22:09.417Z,20.95
2018-12-05T06:23:38.759Z,19.07
2018-12-05T06:24:45.024Z,21.40
2018-12-05T06:25:49.642Z,17.00
2018-12-05T06:26:54.095Z,21.93
2018-12-05T06:27:58.515Z,21.37
2018-12-05T06:29:03.611Z,16.50
2018-12-05T06:30:08.793Z,22.42
2018-12-05T06:31:13.211Z,24.92
2018-12-05T06:32:28.665Z,23.15
2018-12-05T06:33:33.955Z,24.27
2018-12-05T06:34:42.008Z,26.95
2018-12-05T06:35:46.394Z,22.52
2018-12-05T06:36:52.282Z,18.32
2018-12-05T06:37:57.069Z,23.77
2018-12-05T06:39:02.462Z,21.10
2018-12-05T06:40:07.525Z,17.92
2018-12-05T06:41:12.654Z,17.98
2018-12-05T06:42:18.163Z,17.95
2018-12-05T06:43:22.928Z,20.88
2018-12-05T06:44:27.406Z,23.27
2018-12-05T06:45:32.285Z,20.17
2018-12-05T06:46:38.286Z,21.75
2018-12-05T06:47:42.806Z,22.65
2018-12-05T06:48:58.488Z,23.55
2018-12-05T06:50:04.727Z,19.48
2018-12-05T06:51:09.184Z,24.32
2018-12-05T06:52:14.083Z,24.57
2018-12-05T06:53:18.536Z,24.57
2018-12-05T06:54:23.379Z,24.87
2018-12-05T06:55:29.033Z,27.30
2018-12-05T06:56:33.737Z,23.52
2018-12-05T06:57:38.379Z,24.35
2018-12-05T06:58:43.272Z,23.62
2018-12-05T06:59:48.167Z,24.72
2018-12-05T07:00:53.855Z,21.57
2018-12-05T07:02:00.818Z,22.20
2018-12-05T07:03:06.241Z,18.77
2018-12-05T07:04:10.814Z,21.00
2018-12-05T07:05:16.073Z,18.07
2018-12-05T07:06:20.555Z,26.90
2018-12-05T07:07:25.049Z,21.48
2018-12-05T07:08:30.850Z,21.05
2018-12-05T07:09:38.385Z,25.30
2018-12-05T07:10:43.433Z,17.40
2018-12-05T07:11:47.946Z,17.57
2018-12-05T07:12:53.383Z,25.60
2018-12-05T07:13:58.051Z,20.72
2018-12-05T07:15:02.787Z,25.88
2018-12-05T07:16:07.909Z,25.27
2018-12-05T07:17:14.495Z,17.60
2018-12-05T07:18:21.953Z,21.62
2018-12-05T07:19:26.982Z,19.82
2018-12-05T07:20:31.443Z,20.62
2018-12-05T07:21:37.128Z,24.10
2018-12-05T07:22:41.855Z,20.50
2018-12-05T07:23:47.525Z,21.70
2018-12-05T07:24:54.001Z,19.32
2018-12-05T07:25:58.744Z,27.35
2018-12-05T07:27:03.166Z,20.80
2018-12-05T07:28:10.501Z,30.62
2018-12-05T07:29:16.666Z,22.82
2018-12-05T07:30:29.539Z,18.05
2018-12-05T07:31:36.559Z,19.60
2018-12-05T07:32:42.122Z,26.30
2018-12-05T07:33:48.118Z,22.30
2018-12-05T07:34:53.337Z,25.37
2018-12-05T07:35:58.478Z,19.37
2018-12-05T07:37:02.971Z,25.20
2018-12-05T07:38:09.704Z,23.87
2018-12-05T07:39:16.274Z,23.75
2018-12-05T07:40:20.714Z,35.33
2018-12-05T07:41:26.786Z,25.40
2018-12-05T07:42:32.041Z,21.70
2018-12-05T07:43:36.440Z,18.60
2018-12-05T07:44:41.867Z,19.35
2018-12-05T07:45:46.299Z,22.73
2018-12-05T07:46:51.608Z,15.90
2018-12-05T07:47:56.290Z,21.65
2018-12-05T07:49:01.060Z,17.00
2018-12-05T07:50:06.092Z,18.52
2018-12-05T07:51:10.538Z,22.52
2018-12-05T07:52:16.093Z,35.17
2018-12-05T07:53:20.537Z,25.12
2018-12-05T07:54:25.154Z,17.87
2018-12-05T07:55:31.632Z,27.55
2018-12-05T07:56:37.391Z,18.92
2018-12-05T07:58:12.673Z,22.60
2018-12-05T07:59:17.627Z,15.35
2018-12-05T08:00:23.100Z,14.87
2018-12-05T08:01:27.545Z,18.65
2018-12-05T08:02:33.378Z,18.05
2018-12-05T08:03:37.894Z,21.45
2018-12-05T08:04:43.343Z,15.00
2018-12-05T08:05:48.869Z,16.70
2018-12-05T08:06:53.379Z,14.80
2018-12-05T08:07:58.211Z,15.25
2018-12-05T08:09:02.996Z,18.35
2018-12-05T08:10:08.684Z,22.67
2018-12-05T08:11:16.519Z,23.07
2018-12-05T08:12:22.359Z,21.07
2018-12-05T08:13:27.608Z,21.20
2018-12-05T08:14:32.638Z,14.78
2018-12-05T08:15:38.456Z,21.02
2018-12-05T08:16:43.274Z,16.75
2018-12-05T08:17:48.222Z,15.35
2018-12-05T08:18:52.726Z,17.35
2018-12-05T08:19:58.107Z,19.65
2018-12-05T08:21:02.685Z,18.95
2018-12-05T08:22:07.623Z,16.82
2018-12-05T08:23:13.273Z,26.05
2018-12-05T08:24:18.280Z,24.63
2018-12-05T08:25:23.141Z,19.77
2018-12-05T08:26:28.725Z,21.60
2018-12-05T08:27:34.779Z,17.52
2018-12-05T08:28:42.911Z,19.57
2018-12-05T08:29:49.174Z,18.50
2018-12-05T08:31:13.136Z,16.23
2018-12-05T08:32:34.532Z,19.80
2018-12-05T08:33:57.435Z,16.93
2018-12-05T08:35:04.856Z,30.40
2018-12-05T08:36:26.971Z,17.42
2018-12-05T08:37:34.361Z,20.02
2018-12-05T08:38:56.190Z,22.67
2018-12-05T08:40:18.921Z,19.05
2018-12-05T08:41:25.135Z,21.42
2018-12-05T08:42:32.462Z,25.85
2018-12-05T08:43:39.669Z,27.37
2018-12-05T08:44:44.401Z,25.77
2018-12-05T08:45:49.864Z,19.95
2018-12-05T08:46:55.077Z,18.90
2018-12-05T08:48:01.586Z,16.17
2018-12-05T08:49:10.976Z,34.80
2018-12-05T08:50:22.779Z,20.30
2018-12-05T08:51:27.661Z,16.00
2018-12-05T08:52:33.549Z,28.23
2018-12-05T08:53:49.151Z,24.60
2018-12-05T08:54:56.319Z,22.75
2018-12-05T08:56:01.884Z,16.40
2018-12-05T08:57:07.797Z,17.57
2018-12-05T08:58:12.455Z,12.78
2018-12-05T08:59:17.826Z,21.73
2018-12-05T09:00:28.931Z,18.95
2018-12-05T09:01:33.552Z,23.60
2018-12-05T09:03:04.129Z,20.08
2018-12-05T09:04:21.518Z,19.75
2018-12-05T09:05:31.817Z,20.62
2018-12-05T09:06:36.798Z,16.80
2018-12-05T09:07:45.751Z,17.23
2018-12-05T09:08:53.738Z,19.12
2018-12-05T09:09:59.762Z,19.42
2018-12-05T09:11:06.238Z,24.18
2018-12-05T09:12:11.862Z,19.00
2018-12-05T09:13:17.868Z,24.75
2018-12-05T09:14:28.577Z,20.08
2018-12-05T09:15:30.209Z,20.72
2018-12-05T09:16:34.737Z,20.12
2018-12-05T09:17:39.435Z,22.80
2018-12-05T09:18:44.013Z,23.42
2018-12-05T09:19:49.793Z,26.77
2018-12-05T09:20:54.890Z,32.88
2018-12-05T09:21:59.710Z,29.32
2018-12-05T09:23:05.547Z,23.75
2018-12-05T09:24:11.288Z,21.65
2018-12-05T09:25:18.011Z,24.98
2018-12-05T09:26:22.501Z,28.95
2018-12-05T09:27:31.894Z,31.17
2018-12-05T09:28:37.126Z,22.73
2018-12-05T09:29:45.208Z,23.18
2018-12-05T09:30:49.952Z,24.18
2018-12-05T09:31:54.411Z,28.35
2018-12-05T09:33:00.445Z,21.40
2018-12-05T09:34:20.591Z,25.12
2018-12-05T09:35:26.026Z,22.98
2018-12-05T09:36:32.421Z,27.85
2018-12-05T09:37:37.713Z,22.50
2018-12-05T09:38:52.195Z,21.02
2018-12-05T09:39:57.404Z,30.12
2018-12-05T09:41:05.901Z,28.15
2018-12-05T09:42:11.702Z,22.15
2018-12-05T09:43:16.328Z,20.70
2018-12-05T09:44:24.491Z,23.62
2018-12-05T09:45:30.328Z,22.45
2018-12-05T09:46:37.872Z,27.45
2018-12-05T09:48:17.716Z,27.48
2018-12-05T09:49:24.649Z,19.55
2018-12-05T09:50:30.847Z,20.20
2018-12-05T09:51:37.497Z,23.45
2018-12-05T09:52:42.996Z,19.80
2018-12-05T09:53:47.566Z,20.85
2018-12-05T09:54:52.145Z,26.97
2018-12-05T09:55:58.476Z,26.00
2018-12-05T09:57:03.447Z,19.73
2018-12-05T09:58:09.199Z,18.87
2018-12-05T09:59:13.977Z,19.60
2018-12-05T10:00:29.191Z,20.77
2018-12-05T10:01:35.513Z,21.65
2018-12-05T10:02:54.557Z,19.75
2018-12-05T10:03:59.374Z,19.05
2018-12-05T10:05:07.461Z,26.20
2018-12-05T10:08:30.830Z,19.75
2018-12-05T10:09:45.718Z,22.70
2018-12-05T10:10:50.803Z,23.90
2018-12-05T10:11:56.875Z,34.60
2018-12-05T10:13:08.814Z,19.62
2018-12-05T10:14:14.249Z,19.45
2018-12-05T10:15:21.988Z,22.82
2018-12-05T10:16:38.285Z,20.10
2018-12-05T10:17:44.289Z,20.88
2018-12-05T10:18:49.422Z,21.45
2018-12-05T10:19:54.415Z,20.48
2018-12-05T10:21:01.896Z,21.82
2018-12-05T10:22:11.052Z,25.17
2018-12-05T10:24:07.551Z,24.75
2018-12-05T10:25:18.813Z,18.32
2018-12-05T10:26:26.747Z,26.23
2018-12-05T10:27:32.089Z,62.55
2018-12-05T10:28:36.951Z,30.00
2018-12-05T10:29:41.674Z,43.78
2018-12-05T10:30:46.209Z,65.52
2018-12-05T10:31:50.904Z,55.17
2018-12-05T10:32:55.487Z,38.35
2018-12-05T10:34:00.772Z,22.45
2018-12-05T10:35:07.031Z,23.15
2018-12-05T10:36:11.941Z,26.80
2018-12-05T10:37:16.401Z,16.45
2018-12-05T10:38:22.581Z,21.82
2018-12-05T10:39:28.891Z,20.77
2018-12-05T10:40:34.558Z,25.90
2018-12-05T10:41:40.241Z,19.82
2018-12-05T10:42:45.262Z,23.92
2018-12-05T10:44:00.740Z,24.15
2018-12-05T10:45:06.014Z,22.55
2018-12-05T10:46:17.076Z,25.57
2018-12-05T10:47:21.906Z,20.82
2018-12-05T10:48:26.599Z,22.95
2018-12-05T10:49:32.008Z,19.57
2018-12-05T10:50:37.914Z,18.32
2018-12-05T10:51:44.411Z,23.07
2018-12-05T10:52:49.170Z,20.70
2018-12-05T10:53:54.371Z,28.23
2018-12-05T10:55:02.907Z,21.93
2018-12-05T10:56:12.735Z,25.45
2018-12-05T10:57:18.368Z,27.02
2018-12-05T10:58:23.378Z,17.67
2018-12-05T10:59:28.340Z,18.42
2018-12-05T11:00:42.477Z,26.17
2018-12-05T11:01:52.994Z,23.05
2018-12-05T11:03:03.035Z,25.43
2018-12-05T11:06:14.706Z,22.35
2018-12-05T11:07:24.320Z,20.82
2018-12-05T11:08:37.272Z,22.02
2018-12-05T11:09:47.353Z,28.38
2018-12-05T11:10:59.382Z,24.65
2018-12-05T11:12:09.833Z,21.55
2018-12-05T11:13:22.063Z,21.00
2018-12-05T11:14:34.027Z,26.62
2018-12-05T11:15:44.126Z,37.28
2018-12-05T11:16:59.442Z,25.10
2018-12-05T11:18:11.389Z,18.67
2018-12-05T11:19:22.038Z,27.17
2018-12-05T11:20:33.245Z,30.17
2018-12-05T11:21:49.800Z,30.43
2018-12-05T11:23:00.164Z,28.12
2018-12-05T11:24:20.222Z,20.85
2018-12-05T11:26:10.031Z,22.00
2018-12-05T11:27:19.950Z,25.50
2018-12-05T11:28:41.094Z,25.68
2018-12-05T11:35:14.651Z,21.30
2018-12-05T11:37:00.466Z,25.88
2018-12-05T11:38:36.638Z,21.20
2018-12-05T11:40:00.084Z,19.50
2018-12-05T11:41:14.286Z,22.05
2018-12-05T11:44:28.045Z,24.00
2018-12-05T11:45:34.206Z,23.42
2018-12-05T11:48:20.534Z,23.35
2018-12-05T11:49:28.222Z,30.27
2018-12-05T11:50:39.723Z,27.52
2018-12-05T11:51:45.404Z,19.90
2018-12-05T11:54:10.384Z,29.72
2018-12-05T11:55:15.108Z,23.85
2018-12-05T11:56:28.437Z,18.82
2018-12-05T11:59:41.752Z,18.70
2018-12-05T12:01:25.795Z,25.25
2018-12-05T12:02:30.638Z,20.05
2018-12-05T12:03:36.545Z,17.48
2018-12-05T12:04:42.245Z,17.87
2018-12-05T12:05:48.041Z,22.00
2018-12-05T12:06:53.918Z,21.70
2018-12-05T12:08:00.165Z,21.48
2018-12-05T12:09:07.979Z,19.52
2018-12-05T12:10:15.005Z,20.85
2018-12-05T12:11:19.770Z,23.57
2018-12-05T12:12:29.630Z,24.52
2018-12-05T12:13:34.176Z,27.87
2018-12-05T12:14:43.967Z,21.85
2018-12-05T12:15:57.340Z,21.02
2018-12-05T12:17:07.528Z,19.30
2018-12-05T12:18:31.300Z,28.42
2018-12-05T12:19:39.122Z,29.45
2018-12-05T12:20:44.947Z,21.07
2018-12-05T12:21:51.797Z,23.18
2018-12-05T12:22:58.926Z,22.52
2018-12-05T12:24:26.585Z,26.77
2018-12-05T12:25:39.991Z,22.00
2018-12-05T12:26:44.510Z,38.48
2018-12-05T12:27:49.880Z,34.70
2018-12-05T12:28:55.270Z,41.33
2018-12-05T12:29:59.829Z,49.80
2018-12-05T12:31:05.906Z,56.53
2018-12-05T12:32:12.718Z,31.73
2018-12-05T12:33:20.927Z,33.08
2018-12-05T12:34:26.871Z,26.75
2018-12-05T12:35:32.876Z,21.55
2018-12-05T12:36:41.105Z,24.12
2018-12-05T12:38:02.062Z,20.10
2018-12-05T12:39:23.846Z,24.57
2018-12-05T12:40:48.831Z,24.77
2018-12-05T12:41:55.429Z,25.15
2018-12-05T12:43:22.274Z,22.55
2018-12-05T12:46:19.030Z,23.45
2018-12-05T12:47:25.326Z,24.63
2018-12-05T12:48:42.512Z,27.00
2018-12-05T12:49:51.325Z,24.72
2018-12-05T12:51:05.576Z,21.15
2018-12-05T12:52:10.591Z,19.80
2018-12-05T12:53:18.037Z,22.65
2018-12-05T12:54:36.413Z,21.65
2018-12-05T12:55:41.955Z,16.60
2018-12-05T12:56:46.714Z,18.87
2018-12-05T12:57:52.490Z,23.22
2018-12-05T12:58:57.119Z,26.15
2018-12-05T13:00:03.712Z,23.35
2018-12-05T13:01:10.149Z,22.58
2018-12-05T13:02:15.472Z,23.47
2018-12-05T13:03:20.552Z,19.98
2018-12-05T13:04:26.531Z,20.57
2018-12-05T13:05:35.654Z,19.80
2018-12-05T13:06:40.344Z,21.65
2018-12-05T13:07:45.983Z,21.48
2018-12-05T13:08:54.213Z,23.50
2018-12-05T13:10:06.932Z,25.02
2018-12-05T13:11:22.800Z,19.73
2018-12-05T13:12:36.359Z,21.00
2018-12-05T13:13:45.349Z,21.57
2018-12-05T13:14:50.292Z,24.07
2018-12-05T13:15:56.196Z,22.40
2018-12-05T13:17:27.106Z,20.10
2018-12-05T13:18:34.856Z,22.27
2018-12-05T13:19:46.240Z,19.10
2018-12-05T13:20:53.832Z,23.30
2018-12-05T13:22:02.236Z,21.17
2018-12-05T13:23:09.518Z,17.35
2018-12-05T13:24:14.893Z,29.37
2018-12-05T13:25:22.714Z,20.65
2018-12-05T13:26:31.097Z,20.25
2018-12-05T13:27:39.273Z,24.67
2018-12-05T13:28:45.387Z,22.07
2018-12-05T13:29:51.536Z,21.75
2018-12-05T13:30:56.101Z,20.48
2018-12-05T13:32:01.920Z,27.85
2018-12-05T13:33:06.674Z,28.12
2018-12-05T13:34:13.745Z,22.37
2018-12-05T13:35:31.262Z,27.67
2018-12-05T13:36:51.832Z,20.43
2018-12-05T13:38:02.481Z,24.63
2018-12-05T13:39:21.317Z,23.77
2018-12-05T13:40:47.072Z,23.20
2018-12-05T13:42:04.826Z,21.85
2018-12-05T13:43:11.480Z,22.25
2018-12-05T13:44:22.496Z,21.82
2018-12-05T13:45:30.347Z,27.75
2018-12-05T13:46:38.658Z,20.37
2018-12-05T13:47:44.885Z,23.55
2018-12-05T13:48:50.483Z,22.60
2018-12-05T13:49:56.453Z,22.17
2018-12-05T13:51:02.904Z,23.77
2018-12-05T13:52:09.457Z,26.82
2018-12-05T13:53:15.948Z,25.80
2018-12-05T13:54:20.519Z,22.98
2018-12-05T13:55:28.713Z,26.50
2018-12-05T13:56:33.900Z,27.40
2018-12-05T13:57:39.592Z,22.42
2018-12-05T13:59:53.997Z,29.02
2018-12-05T14:01:02.160Z,29.02
2018-12-05T14:02:29.533Z,19.85
2018-12-05T14:03:47.427Z,22.87
2018-12-05T14:04:55.238Z,23.40
2018-12-05T14:06:05.483Z,23.77
2018-12-05T14:07:17.982Z,24.60
2018-12-05T14:08:40.627Z,27.73
2018-12-05T14:09:50.013Z,38.15
2018-12-05T14:11:08.830Z,23.85
2018-12-05T14:12:31.457Z,28.60
2018-12-05T14:13:45.851Z,26.15
2018-12-05T14:14:59.579Z,25.48
2018-12-05T14:16:12.770Z,18.25
2018-12-05T14:17:20.132Z,22.37
2018-12-05T14:18:34.413Z,28.20
2018-12-05T14:19:43.117Z,26.70
2018-12-05T14:20:57.543Z,21.33
2018-12-05T14:22:09.312Z,26.48
2018-12-05T14:23:16.466Z,30.00
2018-12-05T14:24:26.359Z,32.70
2018-12-05T14:25:37.501Z,35.73
2018-12-05T14:26:48.106Z,47.05
2018-12-05T14:28:00.835Z,46.20
2018-12-05T14:29:10.331Z,36.60
2018-12-05T14:30:22.398Z,28.92
2018-12-05T14:31:31.206Z,38.13
2018-12-05T14:32:49.969Z,37.93
2018-12-05T14:33:55.169Z,31.93
2018-12-05T14:35:02.660Z,30.30
2018-12-05T14:36:10.634Z,36.70
2018-12-05T14:37:16.097Z,29.80
2018-12-05T14:38:27.369Z,28.02
2018-12-05T14:39:36.933Z,24.65
2018-12-05T14:40:46.782Z,26.93
2018-12-05T14:41:55.971Z,25.32
2018-12-05T14:43:03.650Z,28.60
2018-12-05T14:44:12.569Z,31.65
2018-12-05T14:45:20.390Z,28.90
2018-12-05T14:46:29.420Z,24.90
2018-12-05T14:47:34.259Z,18.82
2018-12-05T14:48:40.492Z,36.20
2018-12-05T14:49:47.534Z,23.67
2018-12-05T14:50:59.853Z,30.25
2018-12-05T14:52:07.952Z,37.63
2018-12-05T14:53:17.020Z,65.17
2018-12-05T14:54:43.433Z,67.05
2018-12-05T14:55:53.939Z,90.60
2018-12-05T14:57:02.047Z,151.05
2018-12-05T14:58:12.466Z,175.97
2018-12-05T14:59:22.648Z,77.75
2018-12-05T15:00:31.167Z,65.72
2018-12-05T15:01:38.747Z,31.00
2018-12-05T15:02:47.505Z,39.80
2018-12-05T15:03:57.257Z,36.17
2018-12-05T15:05:03.482Z,33.25
2018-12-05T15:06:18.655Z,46.20